Wetterdaten: Woche 14.02.05 - 20.02.05 (KW7)
Datum Zeit Temperatur Luftfeuchte Luftdruck Niederschlag Wind Richtung Sonne Solar Taupunkt Windchill
14.02.2005 00:00 -0.3 C 99 % 1004.1 hPa 0.3 l/m 16.0 km/h (3 Bft) W-NW 0.00 h 0 W/m -0.4 C -4.9 C
14.02.2005 01:00 -0.2 C 95 % 1004.1 hPa 0.0 l/m 14.6 km/h (3 Bft) W-NW 0.00 h 0 W/m -0.9 C -4.5 C
14.02.2005 02:00 -0.4 C 90 % 1004.1 hPa 0.0 l/m 5.3 km/h (1 Bft) W-NW 0.00 h 0 W/m -1.8 C -1.9 C
14.02.2005 03:00 -0.8 C 90 % 1004.1 hPa 0.0 l/m 8.0 km/h (2 Bft) W-NW 0.00 h 0 W/m -2.2 C -3.2 C
14.02.2005 04:00 -1.0 C 94 % 1004.3 hPa 0.0 l/m 2.0 km/h (1 Bft) S 0.00 h 0 W/m -1.8 C -1.4 C
14.02.2005 05:00 -0.8 C 94 % 1005.2 hPa 0.0 l/m 20.5 km/h (4 Bft) W-NW 0.00 h 0 W/m -1.7 C -5.8 C
14.02.2005 06:00 -0.9 C 93 % 1005.2 hPa 0.0 l/m 20.6 km/h (4 Bft) W-NW 0.00 h 0 W/m -1.8 C -5.8 C
14.02.2005 07:00 -2.4 C 94 % 1006.7 hPa 0.0 l/m 0.3 km/h (0 Bft) W-NW 0.00 h 11 W/m -3.2 C -2.4 C
14.02.2005 08:00 -1.1 C 97 % 1007.7 hPa 0.0 l/m 7.1 km/h (2 Bft) W-NW 0.00 h 38 W/m -1.5 C -3.2 C
14.02.2005 09:00 0.1 C 84 % 1008.2 hPa 0.0 l/m 6.9 km/h (2 Bft) W 0.00 h 68 W/m -2.3 C -2.1 C
14.02.2005 10:00 0.3 C 85 % 1009.1 hPa 0.0 l/m 2.0 km/h (1 Bft) W 0.00 h 116 W/m -1.9 C -0.2 C
14.02.2005 11:00 0.5 C 85 % 1009.1 hPa 0.0 l/m 3.0 km/h (1 Bft) W-NW 0.00 h 108 W/m -1.7 C -0.3 C
14.02.2005 12:00 1.5 C 83 % 1009.0 hPa 0.0 l/m 13.5 km/h (3 Bft) W-NW 0.83 h 530 W/m -1.1 C -1.9 C
14.02.2005 13:00 2.4 C 77 % 1008.9 hPa 0.0 l/m 16.5 km/h (3 Bft) W-NW 0.93 h 510 W/m -1.3 C -1.6 C
14.02.2005 14:00 3.2 C 69 % 1007.7 hPa 0.0 l/m 20.9 km/h (4 Bft) W-NW 0.87 h 487 W/m -2.0 C -1.2 C
14.02.2005 15:00 3.2 C 67 % 1007.7 hPa 0.0 l/m 21.2 km/h (4 Bft) W-NW 0.97 h 397 W/m -2.3 C -1.2 C
14.02.2005 16:00 2.5 C 72 % 1007.8 hPa 0.0 l/m 23.8 km/h (4 Bft) NW 0.90 h 232 W/m -2.1 C -2.5 C
14.02.2005 17:00 1.1 C 80 % 1008.0 hPa 0.0 l/m 12.8 km/h (3 Bft) W-NW 0.13 h 31 W/m -1.9 C -2.5 C
14.02.2005 18:00 0.7 C 82 % 1008.1 hPa 0.0 l/m 14.9 km/h (3 Bft) W-NW 0.00 h 0 W/m -2.0 C -3.4 C
14.02.2005 19:00 0.6 C 83 % 1008.1 hPa 0.0 l/m 12.7 km/h (3 Bft) W-NW 0.00 h 0 W/m -2.0 C -2.8 C
14.02.2005 20:00 0.3 C 80 % 1007.3 hPa 0.0 l/m 9.0 km/h (2 Bft) W-NW 0.00 h 0 W/m -2.8 C -2.2 C
14.02.2005 21:00 -0.2 C 87 % 1007.1 hPa 0.3 l/m 1.2 km/h (1 Bft) S-SO 0.00 h 0 W/m -2.0 C -0.3 C
14.02.2005 22:00 -0.3 C 93 % 1006.1 hPa 0.0 l/m 2.8 km/h (1 Bft) SO 0.00 h 0 W/m -1.3 C -1.0 C
14.02.2005 23:00 0.4 C 90 % 1005.8 hPa 0.0 l/m 20.6 km/h (4 Bft) NW 0.00 h 0 W/m -0.9 C -4.6 C
15.02.2005 00:00 0.5 C 88 % 1005.2 hPa 0.0 l/m 14.9 km/h (3 Bft) W-NW 0.00 h 0 W/m -1.3 C -3.4 C
15.02.2005 01:00 -0.3 C 91 % 1005.3 hPa 0.0 l/m 3.7 km/h (1 Bft) SO 0.00 h 0 W/m -1.6 C -1.3 C
15.02.2005 02:00 -0.5 C 95 % 1005.1 hPa 0.0 l/m 1.5 km/h (1 Bft) SO 0.00 h 0 W/m -1.3 C -0.6 C
15.02.2005 03:00 -0.5 C 96 % 1004.1 hPa 0.3 l/m 2.4 km/h (1 Bft) SO 0.00 h 0 W/m -1.0 C -1.1 C
15.02.2005 04:00 -0.2 C 95 % 1004.1 hPa 0.0 l/m 2.1 km/h (1 Bft) SO 0.00 h 0 W/m -0.9 C -0.8 C
15.02.2005 05:00 -0.1 C 95 % 1004.0 hPa 0.0 l/m 0.2 km/h (0 Bft) W-NW 0.00 h 0 W/m -0.8 C -0.1 C
15.02.2005 06:00 -0.1 C 94 % 1004.8 hPa 0.0 l/m 0.4 km/h (0 Bft) W-NW 0.00 h 0 W/m -0.9 C -0.2 C
15.02.2005 07:00 -0.7 C 89 % 1005.2 hPa 0.0 l/m 1.2 km/h (1 Bft) NO 0.00 h 8 W/m -2.4 C -0.9 C
15.02.2005 08:00 -0.8 C 77 % 1006.5 hPa 0.0 l/m 1.8 km/h (1 Bft) N-NO 0.00 h 27 W/m -4.5 C -1.1 C
15.02.2005 09:00 -1.1 C 68 % 1007.5 hPa 0.0 l/m 5.5 km/h (1 Bft) N-NO 0.00 h 128 W/m -6.3 C -2.7 C
15.02.2005 10:00 -1.0 C 62 % 1008.3 hPa 0.0 l/m 1.6 km/h (1 Bft) N-NO 0.00 h 150 W/m -7.4 C -1.3 C
15.02.2005 11:00 -1.2 C 62 % 1009.4 hPa 0.0 l/m 5.9 km/h (2 Bft) NO 0.00 h 168 W/m -7.6 C -3.0 C
15.02.2005 12:00 -0.2 C 55 % 1009.3 hPa 0.0 l/m 7.7 km/h (2 Bft) NO 0.93 h 554 W/m -8.2 C -2.5 C
15.02.2005 13:00 0.4 C 52 % 1009.2 hPa 0.0 l/m 6.2 km/h (2 Bft) N 0.57 h 389 W/m -8.4 C -1.3 C
15.02.2005 14:00 0.5 C 57 % 1009.4 hPa 0.0 l/m 4.4 km/h (1 Bft) N-NO 0.00 h 182 W/m -7.1 C -0.5 C
15.02.2005 15:00 -0.8 C 73 % 1010.4 hPa 0.0 l/m 1.5 km/h (1 Bft) O-SO 0.00 h 118 W/m -5.0 C -1.1 C
15.02.2005 16:00 -1.5 C 82 % 1010.5 hPa 0.3 l/m 0.1 km/h (0 Bft) N 0.00 h 48 W/m -4.2 C -1.5 C
15.02.2005 17:00 -2.0 C 90 % 1011.5 hPa 0.6 l/m 0.0 km/h (0 Bft) N 0.00 h 8 W/m -3.3 C -2.0 C
15.02.2005 18:00 -2.2 C 93 % 1011.6 hPa 0.3 l/m 0.0 km/h (0 Bft) N 0.00 h 0 W/m -3.2 C -2.2 C
15.02.2005 19:00 -2.1 C 94 % 1011.6 hPa 0.3 l/m 0.0 km/h (0 Bft) N 0.00 h 0 W/m -3.0 C -2.1 C
15.02.2005 20:00 -2.1 C 94 % 1012.1 hPa 0.3 l/m 0.0 km/h (0 Bft) N 0.00 h 0 W/m -2.9 C -2.1 C
15.02.2005 21:00 -2.2 C 95 % 1012.7 hPa 0.0 l/m 0.0 km/h (0 Bft) N 0.00 h 0 W/m -2.9 C -2.2 C
15.02.2005 22:00 -2.8 C 94 % 1012.8 hPa 0.0 l/m 0.0 km/h (0 Bft) N 0.00 h 0 W/m -3.6 C -2.8 C
15.02.2005 23:00 -2.2 C 95 % 1013.1 hPa 0.0 l/m 0.0 km/h (0 Bft) N 0.00 h 0 W/m -2.9 C -2.2 C
16.02.2005 00:00 -2.1 C 90 % 1013.7 hPa 0.0 l/m 0.0 km/h (0 Bft) N 0.00 h 0 W/m -3.5 C -2.1 C
16.02.2005 01:00 -1.9 C 84 % 1013.7 hPa 0.0 l/m 0.0 km/h (0 Bft) N 0.00 h 0 W/m -4.2 C -1.9 C
16.02.2005 02:00 -2.0 C 87 % 1014.6 hPa 0.3 l/m 0.0 km/h (0 Bft) N 0.00 h 0 W/m -3.9 C -2.0 C
16.02.2005 03:00 -2.2 C 90 % 1014.8 hPa 0.0 l/m 0.0 km/h (0 Bft) N 0.00 h 0 W/m -3.6 C -2.2 C
16.02.2005 04:00 -1.9 C 83 % 1014.7 hPa 0.0 l/m 0.0 km/h (0 Bft) N 0.00 h 0 W/m -4.4 C -1.9 C
16.02.2005 05:00 -1.8 C 80 % 1014.7 hPa 0.0 l/m 0.0 km/h (0 Bft) N 0.00 h 0 W/m -4.8 C -1.8 C
16.02.2005 06:00 -1.8 C 78 % 1014.9 hPa 0.0 l/m 0.2 km/h (0 Bft) N 0.00 h 0 W/m -5.1 C -1.8 C
16.02.2005 07:00 -1.9 C 80 % 1015.7 hPa 0.0 l/m 1.2 km/h (1 Bft) NO 0.00 h 4 W/m -4.9 C -2.0 C
16.02.2005 08:00 -1.7 C 74 % 1016.3 hPa 0.0 l/m 0.9 km/h (0 Bft) O 0.00 h 48 W/m -5.7 C -1.9 C
16.02.2005 09:00 -1.2 C 69 % 1016.7 hPa 0.0 l/m 7.1 km/h (2 Bft) O 0.53 h 200 W/m -6.1 C -3.3 C
16.02.2005 10:00 -0.7 C 65 % 1016.6 hPa 0.0 l/m 4.4 km/h (1 Bft) O-NO 0.82 h 336 W/m -6.5 C -1.9 C
16.02.2005 11:00 0.3 C 60 % 1017.1 hPa 0.0 l/m 6.4 km/h (2 Bft) N-NO 0.97 h 485 W/m -6.7 C -1.5 C
16.02.2005 12:00 0.7 C 57 % 1016.8 hPa 0.0 l/m 6.9 km/h (2 Bft) N-NO 0.83 h 387 W/m -6.8 C -1.1 C
16.02.2005 13:00 0.4 C 57 % 1017.2 hPa 0.0 l/m 7.4 km/h (2 Bft) N 0.20 h 261 W/m -7.2 C -1.8 C
16.02.2005 14:00 0.0 C 60 % 1017.5 hPa 0.0 l/m 8.5 km/h (2 Bft) N-NO 0.00 h 217 W/m -6.8 C -2.5 C
16.02.2005 15:00 0.6 C 59 % 1017.5 hPa 0.0 l/m 9.8 km/h (2 Bft) N-NO 0.75 h 226 W/m -6.5 C -2.3 C
16.02.2005 16:00 -0.9 C 66 % 1018.7 hPa 0.0 l/m 7.9 km/h (2 Bft) N-NO 0.00 h 68 W/m -6.4 C -3.5 C
16.02.2005 17:00 -1.5 C 73 % 1018.8 hPa 0.0 l/m 1.3 km/h (1 Bft) N-NO 0.00 h 16 W/m -5.7 C -1.6 C
16.02.2005 18:00 -1.7 C 76 % 1019.3 hPa 0.0 l/m 2.4 km/h (1 Bft) O 0.00 h 0 W/m -5.4 C -2.5 C
16.02.2005 19:00 -1.7 C 72 % 1019.9 hPa 0.0 l/m 0.6 km/h (0 Bft) O-NO 0.00 h 0 W/m -6.1 C -1.9 C
16.02.2005 20:00 -1.7 C 69 % 1019.9 hPa 0.0 l/m 0.8 km/h (0 Bft) N-NO 0.00 h 0 W/m -6.6 C -1.9 C
16.02.2005 21:00 -1.9 C 72 % 1020.2 hPa 0.0 l/m 0.7 km/h (0 Bft) O-SO 0.00 h 0 W/m -6.3 C -2.0 C
16.02.2005 22:00 -2.4 C 80 % 1021.0 hPa 0.0 l/m 0.1 km/h (0 Bft) N 0.00 h 0 W/m -5.4 C -2.4 C
16.02.2005 23:00 -2.7 C 80 % 1020.2 hPa 0.0 l/m 0.1 km/h (0 Bft) N 0.00 h 0 W/m -5.6 C -2.7 C
17.02.2005 00:00 -2.5 C 79 % 1021.0 hPa 0.0 l/m 0.0 km/h (0 Bft) N 0.00 h 0 W/m -5.6 C -2.5 C
17.02.2005 01:00 -2.6 C 77 % 1021.1 hPa 0.0 l/m 0.0 km/h (0 Bft) N 0.00 h 0 W/m -6.0 C -2.6 C
17.02.2005 02:00 -2.7 C 80 % 1021.1 hPa 0.0 l/m 0.0 km/h (0 Bft) N 0.00 h 0 W/m -5.6 C -2.7 C
17.02.2005 03:00 -2.9 C 82 % 1021.1 hPa 0.0 l/m 0.0 km/h (0 Bft) N 0.00 h 0 W/m -5.5 C -2.9 C
17.02.2005 04:00 -2.9 C 82 % 1021.4 hPa 0.0 l/m 0.0 km/h (0 Bft) N 0.00 h 0 W/m -5.6 C -2.9 C
17.02.2005 05:00 -2.9 C 78 % 1022.1 hPa 0.0 l/m 0.0 km/h (0 Bft) N 0.00 h 0 W/m -6.1 C -2.9 C
17.02.2005 06:00 -3.5 C 80 % 1022.2 hPa 0.0 l/m 0.0 km/h (0 Bft) N 0.00 h 0 W/m -6.5 C -3.5 C
17.02.2005 07:00 -4.0 C 81 % 1022.8 hPa 0.0 l/m 0.2 km/h (0 Bft) NO 0.00 h 14 W/m -6.8 C -4.0 C
17.02.2005 08:00 -3.1 C 77 % 1023.2 hPa 0.0 l/m 0.2 km/h (0 Bft) N-NO 0.23 h 90 W/m -6.5 C -3.1 C
17.02.2005 09:00 -1.8 C 71 % 1023.0 hPa 0.0 l/m 1.0 km/h (0 Bft) NO 1.00 h 299 W/m -6.4 C -2.1 C
17.02.2005 10:00 -0.3 C 66 % 1022.8 hPa 0.0 l/m 6.3 km/h (2 Bft) O-SO 0.93 h 473 W/m -6.0 C -2.0 C
17.02.2005 11:00 0.6 C 62 % 1023.7 hPa 0.0 l/m 7.7 km/h (2 Bft) O-SO 0.80 h 414 W/m -5.9 C -1.6 C
17.02.2005 12:00 1.1 C 58 % 1023.0 hPa 0.0 l/m 2.2 km/h (1 Bft) O 0.35 h 298 W/m -6.1 C 0.6 C
17.02.2005 13:00 0.7 C 57 % 1022.6 hPa 0.0 l/m 1.5 km/h (1 Bft) N 0.00 h 134 W/m -6.7 C 0.4 C
17.02.2005 14:00 0.7 C 62 % 1022.6 hPa 0.0 l/m 1.4 km/h (1 Bft) N 0.00 h 145 W/m -5.8 C 0.6 C
17.02.2005 15:00 0.6 C 62 % 1022.7 hPa 0.0 l/m 2.2 km/h (1 Bft) N 0.00 h 105 W/m -5.8 C 0.1 C
17.02.2005 16:00 0.2 C 64 % 1022.7 hPa 0.0 l/m 1.0 km/h (0 Bft) N 0.00 h 73 W/m -5.9 C 0.2 C
17.02.2005 17:00 -0.3 C 66 % 1022.8 hPa 0.0 l/m 1.3 km/h (1 Bft) O-NO 0.00 h 15 W/m -5.9 C -0.5 C
17.02.2005 18:00 -0.8 C 70 % 1023.8 hPa 0.0 l/m 0.9 km/h (0 Bft) O 0.00 h 0 W/m -5.7 C -1.1 C
17.02.2005 19:00 -1.1 C 74 % 1024.0 hPa 0.0 l/m 0.6 km/h (0 Bft) O-SO 0.00 h 0 W/m -5.2 C -1.2 C
17.02.2005 20:00 -1.3 C 74 % 1024.0 hPa 0.0 l/m 0.3 km/h (0 Bft) N-NO 0.00 h 0 W/m -5.4 C -1.3 C
17.02.2005 21:00 -1.6 C 73 % 1024.0 hPa 0.0 l/m 0.1 km/h (0 Bft) N 0.00 h 0 W/m -5.9 C -1.6 C
17.02.2005 22:00 -1.9 C 74 % 1024.1 hPa 0.0 l/m 0.2 km/h (0 Bft) N 0.00 h 0 W/m -6.0 C -1.9 C
17.02.2005 23:00 -2.2 C 77 % 1024.1 hPa 0.0 l/m 0.0 km/h (0 Bft) N 0.00 h 0 W/m -5.7 C -2.2 C
18.02.2005 00:00 -2.0 C 76 % 1024.1 hPa 0.0 l/m 0.0 km/h (0 Bft) N 0.00 h 0 W/m -5.7 C -2.0 C
18.02.2005 01:00 -2.0 C 76 % 1023.9 hPa 0.0 l/m 0.0 km/h (0 Bft) N 0.00 h 0 W/m -5.7 C -2.0 C
18.02.2005 02:00 -2.0 C 75 % 1023.2 hPa 0.0 l/m 0.0 km/h (0 Bft) N 0.00 h 0 W/m -5.8 C -2.0 C
18.02.2005 03:00 -1.9 C 76 % 1023.0 hPa 0.0 l/m 0.2 km/h (0 Bft) N 0.00 h 0 W/m -5.6 C -1.9 C
18.02.2005 04:00 -2.0 C 77 % 1023.0 hPa 0.0 l/m 0.0 km/h (0 Bft) N 0.00 h 0 W/m -5.4 C -2.0 C
18.02.2005 05:00 -1.9 C 78 % 1023.0 hPa 0.0 l/m 0.1 km/h (0 Bft) N 0.00 h 0 W/m -5.2 C -1.9 C
18.02.2005 06:00 -1.9 C 77 % 1023.0 hPa 0.0 l/m 0.1 km/h (0 Bft) N 0.00 h 0 W/m -5.5 C -1.9 C
18.02.2005 07:00 -2.1 C 77 % 1023.1 hPa 0.0 l/m 0.0 km/h (0 Bft) N 0.00 h 5 W/m -5.5 C -2.1 C
18.02.2005 08:00 -1.9 C 78 % 1023.1 hPa 0.0 l/m 0.1 km/h (0 Bft) N 0.00 h 33 W/m -5.3 C -1.9 C
18.02.2005 09:00 -1.2 C 77 % 1022.9 hPa 0.0 l/m 0.2 km/h (0 Bft) S-SW 0.33 h 176 W/m -4.8 C -1.2 C
18.02.2005 10:00 -0.3 C 69 % 1022.8 hPa 0.0 l/m 1.7 km/h (1 Bft) O 0.63 h 321 W/m -5.2 C -0.6 C
18.02.2005 11:00 0.7 C 63 % 1022.7 hPa 0.0 l/m 7.0 km/h (2 Bft) O-SO 0.53 h 331 W/m -5.5 C -1.1 C
18.02.2005 12:00 2.0 C 57 % 1021.9 hPa 0.0 l/m 7.4 km/h (2 Bft) O-SO 0.17 h 285 W/m -5.7 C 0.1 C
18.02.2005 13:00 1.6 C 66 % 1021.5 hPa 0.0 l/m 9.9 km/h (2 Bft) O-SO 0.00 h 213 W/m -4.0 C -1.3 C
18.02.2005 14:00 0.9 C 64 % 1021.6 hPa 0.0 l/m 10.6 km/h (2 Bft) O-SO 0.00 h 185 W/m -5.1 C -2.3 C
18.02.2005 15:00 0.3 C 66 % 1020.9 hPa 0.0 l/m 8.3 km/h (2 Bft) O-SO 0.00 h 97 W/m -5.2 C -2.3 C
18.02.2005 16:00 -0.3 C 69 % 1020.7 hPa 0.0 l/m 6.3 km/h (2 Bft) O-SO 0.00 h 44 W/m -5.3 C -2.3 C
18.02.2005 17:00 -0.9 C 74 % 1020.8 hPa 0.0 l/m 6.4 km/h (2 Bft) W-NW 0.00 h 15 W/m -4.9 C -3.0 C
18.02.2005 18:00 -1.2 C 75 % 1020.8 hPa 0.0 l/m 2.6 km/h (1 Bft) W 0.00 h 0 W/m -5.1 C -2.0 C
18.02.2005 19:00 -1.4 C 74 % 1020.9 hPa 0.0 l/m 2.0 km/h (1 Bft) W 0.00 h 0 W/m -5.3 C -2.0 C
18.02.2005 20:00 -1.5 C 76 % 1020.8 hPa 0.0 l/m 3.3 km/h (1 Bft) SO 0.00 h 0 W/m -5.2 C -2.5 C
18.02.2005 21:00 -1.6 C 75 % 1019.9 hPa 0.0 l/m 15.2 km/h (3 Bft) W-NW 0.00 h 0 W/m -5.5 C -6.4 C
18.02.2005 22:00 -1.8 C 74 % 1019.9 hPa 0.0 l/m 16.9 km/h (3 Bft) NW 0.00 h 0 W/m -5.8 C -6.9 C
18.02.2005 23:00 -1.7 C 68 % 1019.3 hPa 0.0 l/m 17.1 km/h (3 Bft) W-NW 0.00 h 0 W/m -6.8 C -6.8 C
19.02.2005 00:00 -1.8 C 65 % 1018.9 hPa 0.0 l/m 10.3 km/h (2 Bft) W-NW 0.00 h 0 W/m -7.4 C -5.4 C
19.02.2005 01:00 -1.8 C 63 % 1018.0 hPa 0.0 l/m 16.2 km/h (3 Bft) NW 0.00 h 0 W/m -7.9 C -6.8 C
19.02.2005 02:00 -2.0 C 67 % 1017.5 hPa 0.0 l/m 14.5 km/h (3 Bft) W-NW 0.00 h 0 W/m -7.3 C -6.7 C
19.02.2005 03:00 -2.3 C 68 % 1016.7 hPa 0.0 l/m 8.7 km/h (2 Bft) W-NW 0.00 h 0 W/m -7.4 C -5.4 C
19.02.2005 04:00 -2.3 C 63 % 1015.8 hPa 0.0 l/m 9.0 km/h (2 Bft) W-NW 0.00 h 0 W/m -8.5 C -5.6 C
19.02.2005 05:00 -2.5 C 62 % 1015.1 hPa 0.0 l/m 1.7 km/h (1 Bft) W-NW 0.00 h 0 W/m -8.7 C -3.0 C
19.02.2005 06:00 -2.9 C 73 % 1014.3 hPa 0.0 l/m 0.4 km/h (0 Bft) W-NW 0.00 h 0 W/m -7.1 C -2.9 C
19.02.2005 07:00 -3.1 C 79 % 1013.7 hPa 0.0 l/m 1.1 km/h (1 Bft) W 0.00 h 11 W/m -6.2 C -3.4 C
19.02.2005 08:00 -2.7 C 77 % 1012.7 hPa 0.0 l/m 0.1 km/h (0 Bft) W-NW 0.00 h 38 W/m -6.2 C -2.7 C
19.02.2005 09:00 -2.6 C 83 % 1012.2 hPa 0.3 l/m 0.0 km/h (0 Bft) N 0.00 h 75 W/m -5.2 C -2.6 C
19.02.2005 10:00 -1.4 C 84 % 1011.5 hPa 0.0 l/m 0.2 km/h (0 Bft) NW 0.10 h 214 W/m -3.8 C -1.4 C
19.02.2005 11:00 -0.5 C 79 % 1010.8 hPa 0.0 l/m 4.1 km/h (1 Bft) W-NW 0.00 h 184 W/m -3.6 C -1.7 C
19.02.2005 12:00 -0.1 C 80 % 1010.3 hPa 0.3 l/m 5.8 km/h (2 Bft) SO 0.00 h 218 W/m -3.2 C -1.8 C
19.02.2005 13:00 -0.3 C 85 % 1009.4 hPa 0.3 l/m 9.3 km/h (2 Bft) SO 0.00 h 187 W/m -2.5 C -3.0 C
19.02.2005 14:00 -0.3 C 87 % 1009.3 hPa 0.0 l/m 3.5 km/h (1 Bft) SO 0.00 h 107 W/m -2.1 C -1.3 C
19.02.2005 15:00 -0.5 C 90 % 1009.3 hPa 0.3 l/m 0.8 km/h (0 Bft) W-SW 0.00 h 37 W/m -1.9 C -0.5 C
19.02.2005 16:00 -0.4 C 87 % 1010.3 hPa 0.0 l/m 7.7 km/h (2 Bft) W-NW 0.00 h 10 W/m -2.4 C -2.8 C
19.02.2005 17:00 -0.5 C 84 % 1010.3 hPa 0.0 l/m 11.2 km/h (2 Bft) W-NW 0.00 h 6 W/m -2.8 C -4.0 C
19.02.2005 18:00 -0.7 C 83 % 1010.9 hPa 0.0 l/m 14.7 km/h (3 Bft) W-NW 0.00 h 0 W/m -3.1 C -5.0 C
19.02.2005 19:00 -0.7 C 84 % 1011.4 hPa 0.0 l/m 9.5 km/h (2 Bft) W-NW 0.00 h 0 W/m -3.1 C -3.7 C
19.02.2005 20:00 -0.8 C 85 % 1011.4 hPa 0.0 l/m 10.6 km/h (2 Bft) W-NW 0.00 h 0 W/m -3.0 C -4.0 C
19.02.2005 21:00 -0.8 C 87 % 1011.4 hPa 0.0 l/m 5.9 km/h (2 Bft) W-NW 0.00 h 0 W/m -2.8 C -2.7 C
19.02.2005 22:00 -0.9 C 89 % 1011.4 hPa 0.0 l/m 0.1 km/h (0 Bft) N 0.00 h 0 W/m -2.5 C -0.9 C
19.02.2005 23:00 -0.8 C 89 % 1011.4 hPa 0.0 l/m 1.1 km/h (0 Bft) W 0.00 h 0 W/m -2.4 C -0.9 C
20.02.2005 00:00 -0.9 C 89 % 1011.4 hPa 0.0 l/m 0.0 km/h (0 Bft) N 0.00 h 0 W/m -2.5 C -0.9 C
20.02.2005 01:00 -1.2 C 91 % 1011.2 hPa 0.0 l/m 0.4 km/h (0 Bft) S-SO 0.00 h 0 W/m -2.5 C -1.2 C
20.02.2005 02:00 -1.5 C 92 % 1010.5 hPa 0.0 l/m 0.5 km/h (0 Bft) SO 0.00 h 0 W/m -2.6 C -1.6 C
20.02.2005 03:00 -1.7 C 93 % 1010.0 hPa 0.0 l/m 0.0 km/h (0 Bft) N 0.00 h 0 W/m -2.6 C -1.7 C
20.02.2005 04:00 -1.3 C 94 % 1009.4 hPa 0.0 l/m 3.3 km/h (1 Bft) SO 0.00 h 0 W/m -2.1 C -2.4 C
20.02.2005 05:00 -1.4 C 96 % 1009.4 hPa 0.0 l/m 0.4 km/h (0 Bft) N 0.00 h 0 W/m -2.0 C -1.5 C
20.02.2005 06:00 -1.5 C 95 % 1009.4 hPa 0.0 l/m 1.0 km/h (0 Bft) SO 0.00 h 0 W/m -2.1 C -1.8 C
20.02.2005 07:00 -1.2 C 94 % 1009.4 hPa 0.0 l/m 2.5 km/h (1 Bft) SO 0.00 h 9 W/m -2.0 C -1.8 C
20.02.2005 08:00 -0.7 C 87 % 1009.3 hPa 0.0 l/m 0.8 km/h (0 Bft) W 0.00 h 31 W/m -2.6 C -0.9 C
20.02.2005 09:00 -0.4 C 81 % 1009.3 hPa 0.0 l/m 1.9 km/h (1 Bft) W-NW 0.00 h 110 W/m -3.3 C -0.8 C
20.02.2005 10:00 -0.0 C 77 % 1009.2 hPa 0.0 l/m 1.0 km/h (0 Bft) W-NW 0.00 h 178 W/m -3.5 C -0.1 C
20.02.2005 11:00 0.8 C 73 % 1009.1 hPa 0.0 l/m 9.0 km/h (2 Bft) W-NW 0.80 h 481 W/m -3.5 C -1.8 C
20.02.2005 12:00 1.6 C 68 % 1008.5 hPa 0.0 l/m 12.4 km/h (3 Bft) W 0.98 h 516 W/m -3.6 C -1.8 C
20.02.2005 13:00 2.4 C 60 % 1007.8 hPa 0.0 l/m 16.2 km/h (3 Bft) W-NW 1.02 h 566 W/m -4.5 C -1.5 C
20.02.2005 14:00 4.9 C 53 % 1006.4 hPa 0.0 l/m 16.3 km/h (3 Bft) W-NW 0.98 h 546 W/m -4.0 C 1.4 C
20.02.2005 15:00 4.9 C 50 % 1006.4 hPa 0.0 l/m 17.7 km/h (3 Bft) W-NW 1.02 h 405 W/m -4.6 C 1.3 C
20.02.2005 16:00 2.8 C 61 % 1006.9 hPa 0.0 l/m 5.9 km/h (2 Bft) N-NO 0.53 h 178 W/m -4.0 C 1.4 C
20.02.2005 17:00 0.2 C 77 % 1008.1 hPa 0.0 l/m 1.9 km/h (1 Bft) O-NO 0.00 h 31 W/m -3.3 C -0.3 C
20.02.2005 18:00 -0.3 C 82 % 1008.2 hPa 0.0 l/m 0.7 km/h (0 Bft) W-NW 0.00 h 0 W/m -3.0 C -0.4 C
20.02.2005 19:00 -0.9 C 89 % 1008.3 hPa 0.6 l/m 0.0 km/h (0 Bft) N 0.00 h 0 W/m -2.5 C -0.9 C
20.02.2005 20:00 -1.2 C 92 % 1008.4 hPa 0.0 l/m 0.0 km/h (0 Bft) N 0.00 h 0 W/m -2.3 C -1.2 C
20.02.2005 21:00 -1.8 C 92 % 1008.5 hPa 0.0 l/m 0.0 km/h (0 Bft) N 0.00 h 0 W/m -2.9 C -1.8 C
20.02.2005 22:00 -2.2 C 94 % 1008.5 hPa 0.0 l/m 0.0 km/h (0 Bft) N 0.00 h 0 W/m -3.1 C -2.2 C
20.02.2005 23:00 -3.0 C 96 % 1008.6 hPa 0.0 l/m 0.0 km/h (0 Bft) N 0.00 h 0 W/m -3.5 C -3.0 C
Min-Datum _ 17.02.05 20.02.05 15.02.05 - 14.02.05 - - - 15.02.05 19.02.05
_ Min-Zeit 07:26 14:45 05:37 - 02:15 - - - 13:15 02:19
Minimum _ -4.3 C 46 % 1004.0 hPa - 0.0 km/h (0 Bft) - - - -9.3 C -8.5 C
Max-Datum _ 20.02.05 14.02.05 17.02.05 15.02.05 14.02.05 - 14.02.05 14.02.05 14.02.05 20.02.05
_ Max-Zeit 14:35 00:01 23:11 17:15 06:01 - 16:43 12:23 00:01 16:21
Maximum _ 6.0 C 100 % 1024.1 hPa 0.6 l/m 38.9 km/h
W-NW (6 Bft)
- 0.05 h 787 W/m -0.2 C 3.6 C
Durchschnitt _ -0.8 C 78 % 1014.1 hPa #4.8 l/m 4.7 km/h (1 Bft) W-NW #20:39 h 188 W/m -4.3 C -2.1 C

Durchschnitt Minimum Temp.-1.2 C
Durchschnitt Maximum Temp.-0.5 C
© Kaiko 2005